Time;durP1;ratioP1;P1;durP2;ratioP2;P2;SDS_P1;SDS_P2;PMS_P1;PMS_P2;Temp;Humidity;BMP_temperature;BMP_pressure;BME280_temperature;BME280_humidity;BME280_pressure;Samples;Min_cycle;Max_cycle;Signal;HPM_P1;HPM_P2
2021/05/17 00:00:21;;;;;;;12.10;6.97;;;10.10;99.90;;;;;;4944269;29;20035;-77
2021/05/17 00:02:48;;;;;;;10.23;4.28;;;10.20;99.90;;;;;;4948861;28;20159;-77
2021/05/17 00:05:14;;;;;;;11.13;4.22;;;10.10;99.90;;;;;;4948126;28;20493;-77
2021/05/17 00:07:41;;;;;;;13.63;4.35;;;10.10;99.90;;;;;;4947288;29;20059;-77
2021/05/17 00:10:08;;;;;;;13.35;3.90;;;10.00;99.90;;;;;;4943839;28;20058;-77
2021/05/17 00:12:33;;;;;;;8.20;3.70;;;10.00;99.90;;;;;;4945995;28;20070;-77
2021/05/17 00:15:00;;;;;;;8.68;3.58;;;10.00;99.90;;;;;;4939605;28;20485;-77
2021/05/17 00:17:26;;;;;;;10.45;3.13;;;10.00;99.90;;;;;;4938446;29;20114;-77
2021/05/17 00:19:51;;;;;;;7.47;2.80;;;9.90;99.90;;;;;;4945410;28;20032;-77
2021/05/17 00:22:17;;;;;;;9.25;3.38;;;9.90;99.90;;;;;;4940127;29;20032;-76
2021/05/17 00:24:43;;;;;;;13.75;2.50;;;9.80;99.90;;;;;;4947607;29;20032;-76
2021/05/17 00:27:09;;;;;;;3.75;1.30;;;9.70;99.90;;;;;;4946942;28;20486;-76
2021/05/17 00:29:35;;;;;;;7.07;1.23;;;9.60;99.90;;;;;;4939664;28;20046;-77
2021/05/17 00:32:01;;;;;;;12.65;1.52;;;9.70;99.90;;;;;;4936704;29;20036;-76
2021/05/17 00:34:27;;;;;;;4.68;1.00;;;9.80;99.90;;;;;;4941980;29;20035;-76
2021/05/17 00:36:54;;;;;;;6.43;1.60;;;9.90;99.90;;;;;;4938609;28;20039;-77
2021/05/17 00:39:21;;;;;;;8.35;1.30;;;9.90;99.90;;;;;;4944204;28;20426;-76
2021/05/17 00:41:47;;;;;;;4.70;1.20;;;10.00;99.90;;;;;;4938014;28;20028;-77
2021/05/17 00:44:13;;;;;;;9.20;1.40;;;10.00;99.90;;;;;;4938184;29;20512;-77
2021/05/17 00:46:40;;;;;;;9.55;1.20;;;9.90;99.90;;;;;;4945825;28;20314;-76
2021/05/17 00:49:06;;;;;;;4.35;0.85;;;9.90;99.90;;;;;;4947678;29;20461;-77
2021/05/17 00:51:32;;;;;;;5.95;1.20;;;9.90;99.90;;;;;;4948168;28;20046;-76
2021/05/17 00:54:02;;;;;;;4.70;0.70;;;9.80;99.90;;;;;;4944932;29;21858;-77
2021/05/17 00:56:28;;;;;;;6.15;0.82;;;9.70;99.90;;;;;;4940194;29;20090;-76
2021/05/17 00:58:54;;;;;;;6.82;1.00;;;9.70;99.90;;;;;;4943674;29;20035;-77
2021/05/17 01:01:20;;;;;;;4.05;0.60;;;9.80;99.90;;;;;;4942904;28;20418;-77
2021/05/17 01:03:46;;;;;;;5.68;0.80;;;9.80;99.90;;;;;;4943384;29;20020;-76
2021/05/17 01:06:12;;;;;;;5.95;0.85;;;9.90;99.90;;;;;;4940571;29;20052;-77
2021/05/17 01:09:13;;;;;;;6.40;0.85;;;9.90;99.90;;;;;;4942979;29;20019;-77
2021/05/17 01:11:39;;;;;;;4.03;0.70;;;9.90;99.90;;;;;;4934207;29;20043;-77
2021/05/17 01:14:07;;;;;;;3.72;1.00;;;9.90;99.90;;;;;;4936881;28;20030;-76
2021/05/17 01:16:33;;;;;;;3.55;0.60;;;9.90;99.90;;;;;;4937575;29;20093;-77
2021/05/17 01:19:00;;;;;;;4.82;1.00;;;9.90;99.90;;;;;;4944795;29;20031;-77
2021/05/17 01:21:30;;;;;;;4.72;0.73;;;9.90;99.90;;;;;;4940180;28;20401;-77
2021/05/17 01:23:56;;;;;;;6.20;1.40;;;9.90;99.90;;;;;;4943766;29;20765;-77
2021/05/17 01:26:27;;;;;;;4.68;0.90;;;9.90;99.90;;;;;;4944390;28;20039;-77
2021/05/17 01:28:56;;;;;;;7.40;0.70;;;9.90;99.90;;;;;;4938982;28;20027;-77
2021/05/17 01:31:22;;;;;;;4.10;0.77;;;9.90;99.90;;;;;;4943761;28;20046;-77
2021/05/17 01:33:48;;;;;;;4.57;1.15;;;9.80;99.90;;;;;;4942848;29;20026;-77
2021/05/17 01:36:15;;;;;;;4.53;0.70;;;9.80;99.90;;;;;;4946268;29;20035;-77
2021/05/17 01:38:45;;;;;;;7.63;0.90;;;9.80;99.90;;;;;;4947558;28;20042;-76
2021/05/17 01:41:14;;;;;;;5.88;0.82;;;9.90;99.90;;;;;;4942678;28;20042;-77
2021/05/17 01:43:44;;;;;;;7.80;0.70;;;9.90;99.90;;;;;;4946500;28;20031;-77
2021/05/17 01:46:20;;;;;;;2.63;0.73;;;9.80;99.90;;;;;;4935718;29;20036;-77
2021/05/17 01:48:46;;;;;;;7.28;0.90;;;9.80;99.90;;;;;;4942902;29;20085;-77
2021/05/17 01:51:15;;;;;;;5.93;0.80;;;9.90;99.90;;;;;;4935346;29;20437;-77
2021/05/17 01:53:42;;;;;;;9.00;1.48;;;9.80;99.90;;;;;;4942396;29;20392;-76
2021/05/17 01:56:08;;;;;;;8.80;1.58;;;9.90;99.90;;;;;;4942002;28;20032;-76
2021/05/17 01:58:38;;;;;;;6.53;1.00;;;9.80;99.90;;;;;;4941690;29;20035;-77
2021/05/17 02:01:07;;;;;;;6.03;1.30;;;9.80;99.90;;;;;;4940584;29;20036;-77
2021/05/17 02:03:35;;;;;;;6.45;0.90;;;9.70;99.90;;;;;;4940859;29;20059;-77
2021/05/17 02:06:01;;;;;;;5.32;0.60;;;9.70;99.90;;;;;;4943157;28;20434;-77
2021/05/17 02:08:27;;;;;;;5.93;0.82;;;9.70;99.90;;;;;;4934520;29;20106;-76
2021/05/17 02:10:53;;;;;;;6.60;0.75;;;9.60;99.90;;;;;;4940592;29;20073;-77
2021/05/17 02:13:20;;;;;;;6.63;0.98;;;9.60;99.90;;;;;;4935328;29;20118;-77
2021/05/17 02:15:48;;;;;;;8.93;1.55;;;9.60;99.90;;;;;;4941953;29;20039;-77
2021/05/17 02:18:17;;;;;;;5.15;1.30;;;9.50;99.90;;;;;;4935078;29;20075;-77
2021/05/17 02:20:43;;;;;;;5.63;1.35;;;9.50;99.90;;;;;;4942901;29;20038;-76
2021/05/17 02:23:14;;;;;;;9.82;1.45;;;9.50;99.90;;;;;;4938047;29;20031;-77
2021/05/17 02:25:43;;;;;;;7.15;1.48;;;9.60;99.90;;;;;;4931967;28;20031;-77
2021/05/17 02:28:09;;;;;;;9.43;1.33;;;9.70;99.90;;;;;;4939115;29;20106;-76
2021/05/17 02:30:36;;;;;;;8.80;1.60;;;9.70;99.90;;;;;;4937315;28;20079;-77
2021/05/17 02:33:01;;;;;;;6.65;1.23;;;9.70;99.90;;;;;;4946042;28;20031;-76
2021/05/17 02:35:27;;;;;;;6.18;1.05;;;9.70;99.90;;;;;;4937320;28;20043;-76
2021/05/17 02:37:53;;;;;;;7.70;1.30;;;9.70;99.90;;;;;;4941800;28;20062;-76
2021/05/17 02:40:19;;;;;;;6.50;1.20;;;9.70;99.90;;;;;;4938434;29;20047;-77
2021/05/17 02:42:47;;;;;;;6.10;1.27;;;9.60;99.90;;;;;;4940274;29;20049;-77
2021/05/17 02:45:14;;;;;;;7.53;1.15;;;9.60;99.90;;;;;;4938182;28;20381;-77
2021/05/17 02:47:40;;;;;;;8.82;1.63;;;9.60;99.90;;;;;;4939520;28;20035;-76
2021/05/17 02:50:08;;;;;;;10.27;1.27;;;9.60;99.90;;;;;;4939009;28;20509;-77
2021/05/17 02:52:34;;;;;;;3.63;0.75;;;9.60;99.90;;;;;;4939759;29;20110;-77
2021/05/17 02:55:08;;;;;;;8.07;1.13;;;9.50;99.90;;;;;;4942501;29;20474;-76
2021/05/17 02:57:44;;;;;;;8.43;1.08;;;9.50;99.90;;;;;;4946770;28;20082;-76
2021/05/17 03:00:17;;;;;;;5.15;0.85;;;9.50;99.90;;;;;;4945113;29;20036;-77
2021/05/17 03:02:52;;;;;;;;;;;9.50;99.90;;;;;;4941073;29;20516;-76
2021/05/17 03:05:18;;;;;;;7.95;1.00;;;9.50;99.90;;;;;;4946336;29;20033;-77
2021/05/17 03:07:47;;;;;;;9.55;0.98;;;9.40;99.90;;;;;;4949128;29;20457;-77
2021/05/17 03:10:14;;;;;;;9.77;1.00;;;9.40;99.90;;;;;;4944718;28;20418;-77
2021/05/17 03:12:41;;;;;;;3.97;0.70;;;9.30;99.90;;;;;;4947360;29;20035;-77
2021/05/17 03:15:08;;;;;;;8.90;0.90;;;9.30;99.90;;;;;;4948756;28;20509;-76
2021/05/17 03:17:35;;;;;;;9.10;1.00;;;9.20;99.90;;;;;;4941790;29;20130;-76
2021/05/17 03:20:01;;;;;;;12.15;1.92;;;9.20;99.90;;;;;;4936021;28;20027;-76
2021/05/17 03:22:30;;;;;;;6.15;1.42;;;9.20;99.90;;;;;;4941395;28;20031;-76
2021/05/17 03:24:57;;;;;;;7.80;1.10;;;9.10;99.90;;;;;;4941954;28;20416;-77
2021/05/17 03:27:26;;;;;;;5.97;1.13;;;9.20;99.90;;;;;;4940766;29;20381;-77
2021/05/17 03:29:52;;;;;;;6.25;1.92;;;9.20;99.90;;;;;;4937963;29;20044;-76
2021/05/17 03:32:18;;;;;;;7.25;1.35;;;9.30;99.90;;;;;;4945217;28;20036;-77
2021/05/17 03:34:44;;;;;;;9.95;1.67;;;9.30;99.90;;;;;;4946897;29;20070;-76
2021/05/17 03:37:10;;;;;;;6.38;1.45;;;9.20;99.90;;;;;;4943785;29;20426;-76
2021/05/17 03:39:36;;;;;;;10.50;1.35;;;9.20;99.90;;;;;;4940356;29;20266;-76
2021/05/17 03:42:02;;;;;;;6.57;1.20;;;9.20;99.90;;;;;;4947787;29;20487;-77
2021/05/17 03:44:28;;;;;;;8.77;1.05;;;9.10;99.90;;;;;;4942014;28;20035;-76
2021/05/17 03:46:53;;;;;;;7.13;1.38;;;9.20;99.90;;;;;;4944875;29;20034;-76
2021/05/17 03:49:19;;;;;;;7.25;0.90;;;9.20;99.90;;;;;;4938383;29;20054;-77
2021/05/17 03:51:45;;;;;;;7.28;1.13;;;9.10;99.90;;;;;;4944587;29;20134;-77
2021/05/17 03:54:11;;;;;;;5.90;1.05;;;9.10;99.90;;;;;;4941822;29;20081;-77
2021/05/17 03:56:36;;;;;;;6.93;1.25;;;9.10;99.90;;;;;;4940962;29;20035;-77
2021/05/17 03:59:03;;;;;;;6.38;1.45;;;9.10;99.90;;;;;;4941497;28;20152;-77
2021/05/17 04:01:28;;;;;;;4.22;0.88;;;9.00;99.90;;;;;;4946491;28;20064;-76
2021/05/17 04:03:55;;;;;;;12.65;1.50;;;9.00;99.90;;;;;;4943593;28;20031;-76
2021/05/17 04:06:37;;;;;;;14.35;1.67;;;9.00;99.90;;;;;;4940843;28;20071;-77
2021/05/17 04:14:32;;;;;;;8.85;1.50;;;8.90;99.90;;;;;;4941919;29;20034;-76
2021/05/17 04:16:57;;;;;;;10.48;2.83;;;8.80;99.90;;;;;;4938433;29;20034;-76
2021/05/17 04:19:26;;;;;;;6.43;1.20;;;8.70;99.90;;;;;;4941349;29;20132;-76
2021/05/17 04:21:52;;;;;;;8.25;1.08;;;8.50;99.90;;;;;;4940469;29;20035;-77
2021/05/17 04:24:18;;;;;;;6.07;0.75;;;8.50;99.90;;;;;;4939310;29;20484;-76
2021/05/17 04:26:43;;;;;;;3.47;0.60;;;8.40;99.90;;;;;;4947260;29;20115;-76
2021/05/17 04:29:09;;;;;;;5.72;0.80;;;8.50;99.90;;;;;;4938034;29;20425;-76
2021/05/17 04:31:35;;;;;;;9.77;1.02;;;8.50;99.90;;;;;;4942226;29;20040;-76
2021/05/17 04:34:00;;;;;;;9.85;1.20;;;8.50;99.90;;;;;;4943802;29;20043;-77
2021/05/17 04:36:28;;;;;;;7.72;1.75;;;8.50;99.90;;;;;;4935808;29;20067;-76
2021/05/17 04:38:54;;;;;;;7.93;1.45;;;8.60;99.90;;;;;;4943935;29;20471;-76
2021/05/17 04:41:20;;;;;;;8.00;1.30;;;8.60;99.90;;;;;;4935991;29;20039;-77
2021/05/17 04:43:45;;;;;;;7.45;1.23;;;8.60;99.90;;;;;;4957455;28;20546;-77
2021/05/17 04:46:11;;;;;;;8.35;1.63;;;8.50;99.90;;;;;;4937347;29;20043;-77
2021/05/17 04:48:48;;;;;;;6.97;1.00;;;8.60;99.90;;;;;;4942486;29;20035;-76
2021/05/17 04:51:15;;;;;;;10.55;1.30;;;8.70;99.90;;;;;;4942794;28;20077;-76
2021/05/17 04:53:40;;;;;;;7.35;1.30;;;8.60;99.90;;;;;;4942736;29;20189;-77
2021/05/17 04:56:06;;;;;;;5.05;1.25;;;8.60;99.90;;;;;;4946523;28;20456;-77
2021/05/17 04:58:32;;;;;;;5.82;1.52;;;8.70;99.90;;;;;;4938456;29;20490;-77
2021/05/17 05:00:58;;;;;;;6.07;1.13;;;8.80;99.90;;;;;;4945086;28;20039;-76
2021/05/17 05:03:23;;;;;;;6.95;1.00;;;8.90;99.90;;;;;;4938418;28;20041;-77
2021/05/17 05:05:49;;;;;;;4.63;0.93;;;8.90;99.90;;;;;;4939404;29;20657;-77
2021/05/17 05:08:15;;;;;;;6.38;0.80;;;8.90;99.90;;;;;;4943608;28;20031;-76
2021/05/17 05:10:40;;;;;;;9.38;1.10;;;8.90;99.90;;;;;;4944645;28;20035;-77
2021/05/17 05:13:06;;;;;;;4.45;1.05;;;8.70;99.90;;;;;;4943297;28;20074;-76
2021/05/17 05:15:32;;;;;;;4.60;0.60;;;8.80;99.90;;;;;;4932947;28;20390;-76
2021/05/17 05:17:57;;;;;;;4.10;0.50;;;8.80;99.90;;;;;;4941799;28;20045;-76
2021/05/17 05:20:23;;;;;;;6.75;0.85;;;8.80;99.90;;;;;;4941996;28;20174;-77
2021/05/17 05:22:49;;;;;;;3.33;0.50;;;8.80;99.90;;;;;;4942467;28;20050;-76
2021/05/17 05:25:16;;;;;;;4.40;0.40;;;8.80;99.90;;;;;;4945693;28;20119;-77
2021/05/17 05:27:45;;;;;;;4.32;0.60;;;8.70;99.90;;;;;;4953539;28;20536;-77
2021/05/17 05:30:26;;;;;;;4.97;0.50;;;8.60;99.90;;;;;;4942405;28;20031;-77
2021/05/17 05:32:55;;;;;;;5.32;0.50;;;8.70;99.90;;;;;;4939135;28;20548;-76
2021/05/17 05:35:21;;;;;;;5.78;1.10;;;8.60;99.90;;;;;;4945002;28;20062;-76
2021/05/17 05:37:47;;;;;;;11.07;2.42;;;8.70;99.90;;;;;;4945411;28;20460;-76
2021/05/17 05:40:13;;;;;;;9.05;1.90;;;8.70;99.90;;;;;;4945409;29;20035;-77
2021/05/17 05:42:39;;;;;;;8.65;2.15;;;8.60;99.90;;;;;;4943756;28;20110;-76
2021/05/17 05:45:10;;;;;;;5.88;0.82;;;8.60;99.90;;;;;;4945669;28;20082;-77
2021/05/17 05:47:35;;;;;;;3.97;0.55;;;8.50;99.90;;;;;;4945936;28;20545;-77
2021/05/17 05:50:01;;;;;;;1.38;0.30;;;8.40;99.90;;;;;;4946530;28;20027;-76
2021/05/17 05:52:27;;;;;;;2.83;0.55;;;8.40;99.90;;;;;;4944834;28;20032;-77
2021/05/17 05:54:53;;;;;;;1.95;0.40;;;8.40;99.90;;;;;;4945776;29;20114;-76
2021/05/17 05:57:18;;;;;;;7.75;0.90;;;8.40;99.90;;;;;;4946495;29;20034;-76
2021/05/17 05:59:44;;;;;;;9.00;0.90;;;8.40;99.90;;;;;;4943011;28;20386;-77
2021/05/17 06:02:10;;;;;;;8.63;1.40;;;8.50;99.90;;;;;;4951672;28;20432;-76
2021/05/17 06:04:36;;;;;;;6.10;1.25;;;8.50;99.90;;;;;;4945690;28;20050;-76
2021/05/17 06:07:02;;;;;;;3.45;0.80;;;8.50;99.90;;;;;;4945291;28;20155;-76
2021/05/17 06:09:28;;;;;;;9.73;1.10;;;8.60;99.90;;;;;;4947395;28;20028;-76
2021/05/17 06:11:55;;;;;;;3.03;0.80;;;8.60;99.90;;;;;;4933520;28;20020;-77
2021/05/17 06:14:23;;;;;;;4.35;0.60;;;8.60;99.90;;;;;;4934071;28;20062;-77
2021/05/17 06:16:49;;;;;;;3.40;0.55;;;8.60;99.90;;;;;;4946280;28;20027;-77
2021/05/17 06:19:15;;;;;;;5.45;0.70;;;8.70;99.90;;;;;;4944523;29;20031;-76
2021/05/17 06:21:41;;;;;;;2.47;0.50;;;8.70;99.90;;;;;;4949085;28;20046;-76
2021/05/17 06:24:10;;;;;;;8.90;0.90;;;8.70;99.90;;;;;;4947557;29;20039;-76
2021/05/17 06:26:38;;;;;;;5.00;1.42;;;8.80;99.90;;;;;;4951238;28;20039;-76
2021/05/17 06:29:04;;;;;;;2.60;0.50;;;8.70;99.90;;;;;;4953139;29;20034;-76
2021/05/17 06:31:30;;;;;;;2.88;0.30;;;8.70;99.90;;;;;;4953969;29;20031;-76
2021/05/17 06:33:56;;;;;;;7.18;0.40;;;8.70;99.90;;;;;;4943251;29;20057;-76
2021/05/17 06:36:21;;;;;;;2.22;0.40;;;8.60;99.90;;;;;;4949140;29;20621;-77
2021/05/17 06:38:48;;;;;;;2.38;0.30;;;8.60;99.90;;;;;;4945263;29;20035;-76
2021/05/17 06:41:13;;;;;;;2.75;0.55;;;8.60;99.90;;;;;;4950618;28;20027;-77
2021/05/17 06:43:39;;;;;;;3.15;0.50;;;8.70;99.90;;;;;;4944202;28;20073;-77
2021/05/17 06:46:08;;;;;;;2.28;0.38;;;8.60;99.90;;;;;;4957198;28;20032;-76
2021/05/17 06:48:44;;;;;;;7.15;1.20;;;8.70;99.90;;;;;;4944563;28;20512;-76
2021/05/17 06:51:16;;;;;;;5.45;0.63;;;8.80;99.90;;;;;;4945884;28;20501;-77
2021/05/17 06:53:43;;;;;;;4.47;0.50;;;8.80;99.90;;;;;;4943174;28;20042;-76
2021/05/17 06:56:23;;;;;;;3.10;0.35;;;8.80;99.90;;;;;;4946681;28;20130;-76
2021/05/17 06:58:59;;;;;;;3.42;0.60;;;8.90;99.90;;;;;;4945734;29;20035;-76
2021/05/17 07:01:27;;;;;;;5.50;1.05;;;8.90;99.90;;;;;;4945672;29;20031;-76
2021/05/17 07:03:55;;;;;;;4.20;1.10;;;8.90;99.90;;;;;;4945096;28;20070;-76
2021/05/17 07:06:27;;;;;;;6.80;1.80;;;9.00;99.90;;;;;;4942545;29;20409;-76
2021/05/17 07:11:52;;;;;;;6.78;1.77;;;9.00;99.90;;;;;;4945413;28;20054;-76
2021/05/17 07:14:18;;;;;;;8.77;2.00;;;9.10;99.90;;;;;;4942307;28;20470;-76
2021/05/17 07:16:45;;;;;;;6.88;1.63;;;9.10;99.90;;;;;;4943522;28;20116;-77
2021/05/17 07:19:11;;;;;;;8.13;2.92;;;9.10;99.90;;;;;;4938310;29;20070;-77
2021/05/17 07:24:22;;;;;;;8.18;2.42;;;9.20;99.90;;;;;;4943803;29;20098;-76
2021/05/17 07:26:49;;;;;;;5.43;1.45;;;9.20;99.90;;;;;;4941478;29;20024;-77
2021/05/17 07:29:15;;;;;;;6.50;1.30;;;9.20;99.90;;;;;;4939853;28;20019;-76
2021/05/17 07:31:41;;;;;;;5.78;1.67;;;9.10;99.90;;;;;;4940371;29;20035;-77
2021/05/17 07:34:07;;;;;;;4.40;0.75;;;9.10;99.90;;;;;;4938662;29;20086;-77
2021/05/17 07:36:32;;;;;;;4.00;0.60;;;9.00;99.90;;;;;;4941227;29;20477;-77
2021/05/17 07:38:58;;;;;;;1.55;0.40;;;8.90;99.90;;;;;;4943531;28;20027;-77
2021/05/17 07:41:24;;;;;;;2.72;0.82;;;8.90;99.90;;;;;;4941323;29;20131;-77
2021/05/17 07:43:50;;;;;;;3.38;0.63;;;8.80;99.90;;;;;;4946198;28;20323;-77
2021/05/17 07:46:15;;;;;;;3.08;0.70;;;8.80;99.90;;;;;;4943763;28;20047;-77
2021/05/17 07:51:26;;;;;;;3.53;0.80;;;8.90;99.90;;;;;;4943618;29;20279;-76
2021/05/17 07:53:52;;;;;;;4.82;0.70;;;8.90;99.90;;;;;;4938459;29;20031;-77
2021/05/17 07:56:18;;;;;;;2.70;0.82;;;9.00;99.90;;;;;;4939816;28;20043;-77
2021/05/17 07:58:44;;;;;;;4.78;0.90;;;9.10;99.90;;;;;;4945656;29;20035;-77
2021/05/17 08:01:13;;;;;;;2.22;0.80;;;9.10;99.90;;;;;;4936587;28;20401;-77
2021/05/17 08:03:39;;;;;;;3.90;0.90;;;9.20;99.90;;;;;;4943548;29;20039;-77
2021/05/17 08:06:05;;;;;;;4.72;1.30;;;9.20;99.90;;;;;;4945870;28;20086;-77
2021/05/17 08:08:30;;;;;;;3.10;1.02;;;9.30;99.90;;;;;;4945131;28;20399;-77
2021/05/17 08:10:56;;;;;;;2.75;0.55;;;9.20;99.90;;;;;;4945173;28;20077;-77
2021/05/17 08:13:22;;;;;;;3.40;0.90;;;9.30;99.90;;;;;;4942559;29;20102;-77
2021/05/17 08:15:48;;;;;;;6.43;0.70;;;9.20;99.90;;;;;;4943091;29;20118;-77
2021/05/17 08:18:13;;;;;;;6.75;4.18;;;9.20;99.90;;;;;;4942910;28;20284;-77
2021/05/17 08:20:39;;;;;;;5.22;1.25;;;9.30;99.90;;;;;;4943161;28;20054;-77
2021/05/17 08:23:05;;;;;;;5.32;1.73;;;9.30;99.90;;;;;;4936887;28;20097;-77
2021/05/17 08:25:31;;;;;;;4.65;0.88;;;9.30;99.90;;;;;;4941898;28;20035;-77
2021/05/17 08:27:56;;;;;;;6.38;1.83;;;9.40;99.90;;;;;;4945640;29;20035;-77
2021/05/17 08:30:24;;;;;;;6.18;1.58;;;9.40;99.90;;;;;;4944010;29;20078;-77
2021/05/17 08:32:50;;;;;;;7.80;1.52;;;9.40;99.90;;;;;;4944610;29;20024;-77
2021/05/17 08:35:16;;;;;;;4.80;0.70;;;9.40;99.90;;;;;;4944470;28;20488;-76
2021/05/17 08:37:42;;;;;;;4.97;1.42;;;9.40;99.90;;;;;;4944040;28;20039;-77
2021/05/17 08:40:08;;;;;;;7.75;1.88;;;9.40;99.90;;;;;;4943158;28;20054;-76
2021/05/17 08:42:34;;;;;;;10.55;1.65;;;9.50;99.90;;;;;;4941863;28;20031;-76
2021/05/17 08:45:01;;;;;;;5.50;1.30;;;9.60;99.90;;;;;;4941387;29;20311;-76
2021/05/17 08:47:27;;;;;;;4.53;0.82;;;9.70;99.90;;;;;;4946621;29;20111;-77
2021/05/17 08:49:53;;;;;;;5.07;1.58;;;9.60;99.90;;;;;;4946927;28;20042;-76
2021/05/17 08:52:19;;;;;;;3.17;1.05;;;9.70;99.90;;;;;;4942629;28;20024;-76
2021/05/17 08:54:45;;;;;;;8.30;1.30;;;9.70;99.90;;;;;;4945623;28;20042;-77
2021/05/17 08:57:10;;;;;;;1.58;0.40;;;9.70;99.90;;;;;;4937119;29;20043;-77
2021/05/17 08:59:36;;;;;;;3.45;0.70;;;9.70;99.90;;;;;;4941654;29;20094;-77
2021/05/17 09:02:02;;;;;;;4.32;0.80;;;9.70;99.90;;;;;;4945342;29;20031;-76
2021/05/17 09:04:27;;;;;;;7.00;0.90;;;9.70;99.90;;;;;;4942379;29;20067;-77
2021/05/17 09:06:57;;;;;;;2.20;0.40;;;9.70;99.90;;;;;;4945496;28;20043;-76
2021/05/17 09:09:33;;;;;;;5.13;0.50;;;9.80;99.90;;;;;;4941958;29;20027;-77
2021/05/17 09:12:03;;;;;;;6.20;1.13;;;9.70;99.90;;;;;;4940857;28;20027;-76
2021/05/17 09:14:31;;;;;;;3.83;0.50;;;9.80;99.90;;;;;;4944690;28;20110;-76
2021/05/17 09:17:06;;;;;;;3.35;0.60;;;9.90;99.90;;;;;;4943623;28;20058;-75
2021/05/17 09:19:32;;;;;;;2.60;0.50;;;9.90;99.90;;;;;;4936783;29;20455;-76
2021/05/17 09:22:04;;;;;;;4.78;1.20;;;10.00;99.90;;;;;;4942515;29;20054;-76
2021/05/17 09:24:35;;;;;;;3.47;0.70;;;10.20;99.90;;;;;;4943563;29;20019;-76
2021/05/17 09:27:01;;;;;;;3.40;0.60;;;10.30;99.90;;;;;;4946295;29;20031;-76
2021/05/17 09:29:28;;;;;;;3.80;0.57;;;10.30;99.90;;;;;;4945663;28;20035;-76
2021/05/17 09:31:54;;;;;;;3.10;0.32;;;10.30;99.90;;;;;;4942163;28;20421;-76
2021/05/17 09:34:34;;;;;;;4.65;0.80;;;10.30;99.90;;;;;;4939757;28;20403;-76
2021/05/17 09:37:08;;;;;;;4.88;0.70;;;10.10;99.90;;;;;;4948502;28;20042;-76
2021/05/17 09:39:36;;;;;;;4.93;0.80;;;10.00;99.90;;;;;;4942290;28;20094;-76
2021/05/17 09:42:04;;;;;;;4.60;0.60;;;10.00;99.90;;;;;;4943440;29;20360;-76
2021/05/17 09:44:30;;;;;;;1.70;0.40;;;10.00;99.90;;;;;;4938076;29;20035;-76
2021/05/17 09:47:13;;;;;;;4.57;1.20;;;10.10;99.90;;;;;;4937806;28;20063;-76
2021/05/17 09:49:45;;;;;;;;;;;10.30;99.90;;;;;;4963761;28;20043;-76
2021/05/17 09:52:13;;;;;;;2.67;0.60;;;10.40;99.90;;;;;;4945979;28;19926;-76
2021/05/17 09:55:03;;;;;;;5.85;0.90;;;10.60;99.90;;;;;;4947239;29;20360;-76
2021/05/17 09:57:36;;;;;;;3.65;1.00;;;10.60;99.90;;;;;;4944109;29;20083;-76
2021/05/17 10:00:25;;;;;;;4.32;0.60;;;10.50;99.90;;;;;;4941604;28;20927;-76
2021/05/17 10:02:52;;;;;;;3.17;0.57;;;10.50;99.90;;;;;;4942977;28;20031;-75
2021/05/17 10:05:19;;;;;;;3.67;0.50;;;10.30;99.90;;;;;;4946054;28;20083;-76
2021/05/17 10:07:48;;;;;;;3.13;0.73;;;10.30;99.90;;;;;;4944508;28;20047;-76
2021/05/17 10:10:14;;;;;;;5.05;1.58;;;10.30;99.90;;;;;;4947271;29;20114;-76
2021/05/17 10:12:40;;;;;;;4.32;0.70;;;10.30;99.90;;;;;;4947412;28;20035;-76
2021/05/17 10:15:12;;;;;;;5.18;0.60;;;10.30;99.90;;;;;;4948730;28;20089;-76
2021/05/17 10:17:38;;;;;;;2.83;0.60;;;10.50;99.90;;;;;;4946236;28;20492;-76
2021/05/17 10:20:07;;;;;;;4.93;1.10;;;10.80;99.90;;;;;;4945389;28;20463;-76
2021/05/17 10:22:34;;;;;;;4.68;1.27;;;11.10;99.90;;;;;;4942891;28;20053;-77
2021/05/17 10:25:01;;;;;;;6.45;0.98;;;11.30;99.90;;;;;;4946258;28;20118;-77
2021/05/17 10:27:29;;;;;;;3.40;0.70;;;11.50;99.90;;;;;;4947178;28;20070;-77
2021/05/17 10:30:02;;;;;;;2.78;0.47;;;11.70;99.90;;;;;;4941690;28;20043;-76
2021/05/17 10:32:40;;;;;;;3.88;0.50;;;11.70;99.90;;;;;;4945457;28;20459;-76
2021/05/17 10:35:13;;;;;;;2.67;0.60;;;12.00;99.90;;;;;;4943637;29;20477;-76
2021/05/17 10:37:39;;;;;;;6.10;0.88;;;12.00;99.90;;;;;;4949078;28;20034;-76
2021/05/17 10:40:06;;;;;;;3.70;0.60;;;11.60;99.90;;;;;;4940697;28;20031;-76
2021/05/17 10:42:56;;;;;;;3.10;0.65;;;11.60;99.90;;;;;;4942008;29;20031;-76
2021/05/17 10:48:37;;;;;;;2.35;0.60;;;11.60;99.90;;;;;;4940113;29;20037;-76
2021/05/17 10:51:19;;;;;;;2.63;0.38;;;12.00;99.90;;;;;;4939578;29;20028;-76
2021/05/17 10:53:54;;;;;;;4.50;0.60;;;12.20;99.90;;;;;;4946411;29;20035;-77
2021/05/17 10:56:52;;;;;;;2.63;0.50;;;12.40;99.90;;;;;;4946927;29;20389;-76
2021/05/17 11:02:29;;;;;;;3.65;1.00;;;12.50;99.90;;;;;;4944639;29;20532;-76
2021/05/17 11:05:14;;;;;;;4.22;0.90;;;12.50;99.90;;;;;;4942268;28;20054;-77
2021/05/17 11:07:50;;;;;;;2.17;0.70;;;12.50;99.90;;;;;;4945043;29;20043;-76
2021/05/17 11:10:32;;;;;;;2.63;0.60;;;12.30;99.90;;;;;;4932879;28;20422;-76
2021/05/17 11:13:06;;;;;;;2.83;0.93;;;12.20;99.90;;;;;;4938809;28;20066;-77
2021/05/17 11:15:44;;;;;;;2.00;0.60;;;12.20;99.90;;;;;;4939054;29;20048;-77
2021/05/17 11:18:11;;;;;;;1.90;0.50;;;12.10;99.90;;;;;;4938464;29;20444;-77
2021/05/17 11:20:40;;;;;;;3.47;0.98;;;12.10;99.90;;;;;;4942793;28;20069;-76
2021/05/17 11:23:09;;;;;;;3.15;0.85;;;12.00;99.90;;;;;;4939659;29;20477;-76
2021/05/17 11:26:09;;;;;;;4.00;1.00;;;12.00;99.90;;;;;;4938349;28;20039;-77
2021/05/17 11:28:42;;;;;;;2.72;0.73;;;12.10;99.90;;;;;;4944560;29;20028;-76
2021/05/17 11:31:14;;;;;;;5.00;0.60;;;12.10;99.90;;;;;;4948119;29;20031;-76
2021/05/17 11:33:50;;;;;;;3.88;0.60;;;12.20;99.90;;;;;;4946972;28;20029;-76
2021/05/17 11:36:19;;;;;;;5.03;0.70;;;12.20;99.90;;;;;;4945332;29;20043;-76
2021/05/17 11:39:16;;;;;;;4.95;1.55;;;12.20;99.90;;;;;;4945699;29;20042;-77
2021/05/17 11:41:57;;;;;;;2.17;0.40;;;12.40;99.90;;;;;;4941673;29;20035;-76
2021/05/17 11:45:10;;;;;;;1.80;0.30;;;12.40;99.90;;;;;;4939848;29;20661;-76
2021/05/17 11:47:23;;;;;;;5.22;0.60;;;12.40;99.90;;;;;;4942491;29;20528;-76
2021/05/17 11:49:49;;;;;;;3.83;0.65;;;12.50;99.90;;;;;;4941225;29;20078;-80
2021/05/17 11:52:22;;;;;;;2.90;0.32;;;12.60;99.90;;;;;;4937473;28;20147;-80
2021/05/17 11:54:53;;;;;;;2.72;0.50;;;12.80;99.90;;;;;;4938816;28;20039;-79
2021/05/17 11:57:26;;;;;;;1.90;0.50;;;13.00;99.90;;;;;;4941874;28;20126;-79
2021/05/17 11:59:52;;;;;;;2.03;0.15;;;13.20;99.90;;;;;;4943369;29;20053;-80
2021/05/17 12:02:18;;;;;;;1.15;0.20;;;13.30;99.90;;;;;;4943713;28;20425;-79
2021/05/17 12:04:45;;;;;;;1.80;0.30;;;13.30;99.90;;;;;;4946008;28;20429;-79
2021/05/17 12:07:19;;;;;;;3.22;0.65;;;13.40;99.90;;;;;;4919746;29;661201;-78
2021/05/17 12:09:46;;;;;;;1.73;0.40;;;13.30;99.90;;;;;;4946480;28;20094;-78
2021/05/17 12:12:15;;;;;;;3.55;0.40;;;13.40;99.90;;;;;;4938329;28;20046;-78
2021/05/17 12:14:55;;;;;;;2.75;1.00;;;13.40;99.90;;;;;;4960801;28;20465;-78
2021/05/17 12:17:22;;;;;;;2.05;0.40;;;13.60;99.90;;;;;;4957059;28;20046;-77
2021/05/17 12:19:51;;;;;;;3.05;0.35;;;13.60;99.90;;;;;;4945334;28;20083;-77
2021/05/17 12:22:25;;;;;;;1.30;0.30;;;13.50;99.90;;;;;;4938847;28;20437;-78
2021/05/17 12:24:59;;;;;;;7.32;0.50;;;13.40;99.90;;;;;;4940952;28;20035;-81
2021/05/17 12:27:25;;;;;;;3.42;0.70;;;13.20;99.90;;;;;;4951153;29;20465;-80
2021/05/17 12:30:09;;;;;;;3.70;0.57;;;13.20;99.90;;;;;;4953216;29;20063;-80
2021/05/17 12:32:40;;;;;;;0.93;0.38;;;13.20;99.90;;;;;;4953281;29;20154;-80
2021/05/17 12:35:08;;;;;;;1.23;0.25;;;13.10;99.90;;;;;;4952221;29;20185;-81
2021/05/17 12:37:40;;;;;;;1.77;0.20;;;13.00;99.90;;;;;;4945257;29;20039;-80
2021/05/17 12:40:30;;;;;;;0.70;0.20;;;12.90;99.90;;;;;;4953019;28;20031;-80
2021/05/17 12:43:18;;;;;;;0.68;0.20;;;12.80;99.90;;;;;;4951740;29;20039;-80
2021/05/17 12:45:47;;;;;;;1.17;0.35;;;12.90;99.90;;;;;;4950765;28;20027;-80
2021/05/17 12:48:19;;;;;;;2.25;0.22;;;13.00;99.90;;;;;;4946756;29;20028;-80
2021/05/17 12:50:52;;;;;;;1.42;0.40;;;13.00;99.90;;;;;;4949080;29;20118;-80
2021/05/17 12:53:19;;;;;;;2.08;0.47;;;13.10;99.90;;;;;;4950977;29;20493;-80
2021/05/17 12:55:49;;;;;;;1.50;0.30;;;13.00;99.90;;;;;;4949177;29;20066;-79
2021/05/17 12:58:45;;;;;;;4.10;0.40;;;13.10;99.90;;;;;;4948583;29;20090;-80
2021/05/17 13:01:16;;;;;;;3.10;0.50;;;13.00;99.90;;;;;;4942694;28;20043;-80
2021/05/17 13:03:47;;;;;;;3.85;0.40;;;13.00;99.90;;;;;;4937569;29;20036;-80
2021/05/17 13:06:27;;;;;;;1.67;0.40;;;13.00;99.90;;;;;;4936010;29;20043;-80
2021/05/17 13:09:03;;;;;;;0.95;0.32;;;12.90;99.90;;;;;;4943091;29;20039;-80
2021/05/17 13:11:41;;;;;;;3.38;0.80;;;12.90;99.90;;;;;;4943715;28;20037;-80
2021/05/17 13:14:23;;;;;;;5.43;0.88;;;12.60;99.90;;;;;;4937739;29;20509;-80
2021/05/17 13:16:49;;;;;;;3.63;0.40;;;12.30;99.90;;;;;;4946094;29;20028;-80
2021/05/17 13:19:40;;;;;;;2.70;0.30;;;12.30;99.90;;;;;;4941620;29;20102;-80
2021/05/17 13:33:17;;;;;;;6.55;0.63;;;12.20;99.90;;;;;;4941923;29;20516;-80